Friday, October 19, 2018, 1:49 AM EDT
Back to Local

KLCI, Laconia, Laconia Municipal Airport

Location: Laconia, NH, United States Lat: 43.567
Local Time: 1:49 AM EDT ( 5:49 GMT) Lon: -71.417
Time Zone: US/Eastern Elev: 544 ft

Show me the last for .
Show Decoded

2018-10-19 00:56 METAR KLCI 190456Z AUTO 24006KT 10SM OVC070 01/M05 A3022 RMK AO2 SLP252
                 T00111050 FZRANO $ =
2018-10-18 23:56 METAR KLCI 190356Z AUTO 00000KT 10SM SCT070 M01/M05 A3022 RMK AO2 SLP254
                 T10111050 400501028 FZRANO $ =
2018-10-18 22:56 METAR KLCI 190256Z AUTO 00000KT 10SM CLR M02/M04 A3023 RMK AO2 SLP257 T10171044
                 53004 FZRANO $ =
2018-10-18 21:56 METAR KLCI 190156Z AUTO 24004KT 10SM CLR M01/M04 A3022 RMK AO2 SLP255 T10111044
                 FZRANO $ =
2018-10-18 20:56 METAR KLCI 190056Z AUTO 25003KT 10SM CLR M01/M05 A3021 RMK AO2 SLP249 T10111050
                 FZRANO $ =
2018-10-18 19:56 METAR KLCI 182356Z AUTO 00000KT 10SM CLR M01/M05 A3021 RMK AO2 SLP250 T10111050
                 10050 21011 51013 FZRANO $ =
2018-10-18 18:56 METAR KLCI 182256Z AUTO 00000KT 10SM CLR 02/M07 A3021 RMK AO2 SLP250 T00171072
                 FZRANO $ =
2018-10-18 17:56 METAR KLCI 182156Z AUTO 28004KT 10SM CLR 03/M08 A3020 RMK AO2 SLP245 T00331083 $
                 =
2018-10-18 16:56 METAR KLCI 182056Z AUTO 30009G16KT 10SM CLR 04/M08 A3018 RMK AO2 SLP238
                 T00441083 53003 $ =
2018-10-18 15:56 METAR KLCI 181956Z AUTO 31011G17KT 10SM CLR 04/M09 A3017 RMK AO2 SLP236
                 T00441094 $ =
2018-10-18 14:56 METAR KLCI 181856Z AUTO 29013G23KT 10SM CLR 04/M09 A3017 RMK AO2 SLP237
                 T00391094 $ =
2018-10-18 13:56 METAR KLCI 181756Z AUTO 29012G21KT 250V320 10SM FEW050 04/M09 A3017 RMK AO2
                 SLP237 60000 T00391089 10044 20000 58003 $ =
2018-10-18 12:56 METAR KLCI 181656Z AUTO 31016G23KT 10SM SCT050 BKN060 04/M09 A3017 RMK AO2
                 SLP236 T00391089 $ =
2018-10-18 11:56 METAR KLCI 181556Z AUTO 30011G18KT 10SM OVC050 03/M08 A3018 RMK AO2 PK WND
                 30027/1510 SLP241 T00331083 =
2018-10-18 10:56 METAR KLCI 181456Z AUTO 28008G19KT 240V310 10SM BKN048 BKN055 02/M08 A3018 RMK
                 AO2 SLP237 60000 T00221083 51019 FZRANO =
2018-10-18 09:56 METAR KLCI 181356Z AUTO 28016G20KT 10SM BKN043 02/M07 A3016 RMK AO2 PK WND
                 31028/1317 SLP235 T00171072 FZRANO =
2018-10-18 08:56 METAR KLCI 181256Z AUTO 31008G15KT 260V030 10SM BKN038 BKN048 01/M06 A3015 RMK
                 AO2 UPB08E12B33E38RAB12E16B38E39SNE08B16E33 SLP228 P0000 T00061061 FZRANO =
2018-10-18 07:56 METAR KLCI 181156Z AUTO 28007KT 9SM -SN BKN041 OVC048 01/M06 A3012 RMK AO2
                 RAB26E45SNB45 SLP220 P0000 60000 7//// T00061061 10022 20000 51033 FZRANO =
2018-10-18 06:56 METAR KLCI 181056Z AUTO 31010G20KT 10SM OVC045 01/M07 A3008 RMK AO2 SLP209
                 T00061067 FZRANO =
2018-10-18 04:56 METAR KLCI 180856Z AUTO 29009G17KT 9SM -SN SCT031 01/M04 A3002 RMK AO2
                 RAB12E16B45E48UPB44E45SNB16E44B48 SLP185 P0000 60000 T00061039 53025 FZRANO =
2018-10-18 03:56 METAR KLCI 180756Z AUTO 26012G20KT 10SM CLR 02/M06 A2998 RMK AO2 SLP172
                 T00171056 FZRANO =
2018-10-18 02:56 METAR KLCI 180656Z AUTO 26009G17KT 10SM FEW039 02/M04 A2996 RMK AO2 SLP164
                 T00171044 FZRANO =
2018-10-18 01:56 METAR KLCI 180556Z AUTO 27010G20KT 10SM SCT042 02/M03 A2994 RMK AO2 SLP161 60000
                 T00221028 10056 20022 53016 FZRANO =

Support USWX by starting your Amazon purchase here.